Time;durP1;ratioP1;P1;durP2;ratioP2;P2;SDS_P1;SDS_P2;PMS_P1;PMS_P2;Temp;Humidity;BMP_temperature;BMP_pressure;BME280_temperature;BME280_humidity;BME280_pressure;Samples;Min_cycle;Max_cycle;Signal;HPM_P1;HPM_P2
2021/01/08 00:01:41;;;;;;;;;;;17.80;48.70;;;;;;6266585;22;19994;-55
2021/01/08 00:04:08;;;;;;;;;;;17.80;48.70;;;;;;6262987;22;20385;-54
2021/01/08 00:06:34;;;;;;;;;;;17.80;48.80;;;;;;6266707;22;19915;-54
2021/01/08 00:09:01;;;;;;;;;;;17.70;48.70;;;;;;6261814;22;19916;-54
2021/01/08 00:11:27;;;;;;;;;;;17.70;48.80;;;;;;6266088;22;20014;-54
2021/01/08 00:13:53;;;;;;;;;;;17.70;49.00;;;;;;6262528;22;19997;-55
2021/01/08 00:16:19;;;;;;;;;;;17.60;49.00;;;;;;6265860;22;20280;-55
2021/01/08 00:18:46;;;;;;;;;;;17.60;49.00;;;;;;6262655;22;19919;-54
2021/01/08 00:21:13;;;;;;;;;;;17.60;49.00;;;;;;6265868;22;19998;-54
2021/01/08 00:23:47;;;;;;;;;;;17.60;49.00;;;;;;6266458;22;20296;-54
2021/01/08 00:26:13;;;;;;;;;;;17.60;49.00;;;;;;6265032;22;20399;-55
2021/01/08 00:28:42;;;;;;;;;;;17.50;49.10;;;;;;6265912;22;19922;-54
2021/01/08 00:31:08;;;;;;;;;;;17.60;49.10;;;;;;6263350;22;20002;-54
2021/01/08 00:33:40;;;;;;;;;;;17.60;49.00;;;;;;6266194;22;19960;-54
2021/01/08 00:36:06;;;;;;;;;;;17.50;49.00;;;;;;6263694;22;19915;-54
2021/01/08 00:38:32;;;;;;;;;;;17.50;49.00;;;;;;6265512;22;19937;-54
2021/01/08 00:40:59;;;;;;;;;;;17.50;49.10;;;;;;6263505;22;19915;-54
2021/01/08 00:43:25;;;;;;;;;;;17.50;49.20;;;;;;6265826;22;20350;-54
2021/01/08 00:45:51;;;;;;;;;;;17.40;49.20;;;;;;6262800;22;19915;-54
2021/01/08 00:48:18;;;;;;;;;;;17.40;49.30;;;;;;6265782;22;20312;-54
2021/01/08 00:50:44;;;;;;;;;;;17.40;49.40;;;;;;6262769;22;19915;-54
2021/01/08 00:53:10;;;;;;;;;;;17.40;49.50;;;;;;6238294;22;20347;-54
2021/01/08 00:55:36;;;;;;;;;;;17.40;49.40;;;;;;6262544;22;20037;-54
2021/01/08 00:58:02;;;;;;;;;;;17.40;49.50;;;;;;6266257;22;19986;-54
2021/01/08 01:00:29;;;;;;;;;;;17.40;49.50;;;;;;6261322;22;20569;-55
2021/01/08 01:02:55;;;;;;;;;;;17.30;49.50;;;;;;6265970;22;19923;-54
2021/01/08 01:05:26;;;;;;;;;;;17.40;49.60;;;;;;6266186;22;19926;-54
2021/01/08 01:07:52;;;;;;;;;;;17.30;49.60;;;;;;6273551;22;20292;-54
2021/01/08 01:10:19;;;;;;;;;;;17.30;49.70;;;;;;6266186;22;20387;-54
2021/01/08 01:12:45;;;;;;;;;;;17.30;49.70;;;;;;6262091;22;19998;-54
2021/01/08 01:15:17;;;;;;;;;;;17.30;49.60;;;;;;6266655;22;19919;-54
2021/01/08 01:17:43;;;;;;;;;;;17.30;49.60;;;;;;6261783;22;20332;-54
2021/01/08 01:20:12;;;;;;;;;;;17.30;49.60;;;;;;6265330;22;19919;-54
2021/01/08 01:22:38;;;;;;;;;;;17.30;49.70;;;;;;6261910;22;19919;-55
2021/01/08 01:25:04;;;;;;;;;;;17.30;49.70;;;;;;6266174;22;19915;-54
2021/01/08 01:27:31;;;;;;;;;;;17.30;49.70;;;;;;6260915;22;19960;-54
2021/01/08 01:29:57;;;;;;;;;;;17.30;50.40;;;;;;6266594;22;20312;-54
2021/01/08 01:32:23;;;;;;;;;;;17.20;49.80;;;;;;6261662;22;19922;-54
2021/01/08 01:34:50;;;;;;;;;;;17.20;49.80;;;;;;6265907;22;19963;-54
2021/01/08 01:37:16;;;;;;;;;;;17.20;50.40;;;;;;6261517;22;20424;-54
2021/01/08 01:39:42;;;;;;;;;;;17.20;49.80;;;;;;6266179;22;19939;-54
2021/01/08 01:42:09;;;;;;;;;;;17.20;49.90;;;;;;6261793;22;20320;-54
2021/01/08 01:44:35;;;;;;;;;;;17.20;49.90;;;;;;6265573;22;20037;-54
2021/01/08 01:47:01;;;;;;;;;;;17.10;50.00;;;;;;6266161;22;19964;-54
2021/01/08 01:49:27;;;;;;;;;;;17.10;49.90;;;;;;6261861;22;20233;-54
2021/01/08 01:51:54;;;;;;;;;;;17.10;49.90;;;;;;6265451;22;19915;-54
2021/01/08 01:54:21;;;;;;;;;;;17.10;49.90;;;;;;6259744;22;19915;-54
2021/01/08 01:56:47;;;;;;;;;;;17.10;49.90;;;;;;6263405;22;19964;-54
2021/01/08 01:59:13;;;;;;;;;;;17.10;50.00;;;;;;6260101;22;20400;-55
2021/01/08 02:01:39;;;;;;;;;;;17.10;50.00;;;;;;6264753;22;19997;-54
2021/01/08 02:04:06;;;;;;;;;;;17.10;50.00;;;;;;6260251;22;19990;-54
2021/01/08 02:06:36;;;;;;;;;;;17.10;50.00;;;;;;6264612;22;20274;-54
2021/01/08 02:09:07;;;;;;;;;;;17.10;50.10;;;;;;6259656;22;20015;-54
2021/01/08 02:11:34;;;;;;;;;;;17.10;50.10;;;;;;6264158;22;19998;-54
2021/01/08 02:14:10;;;;;;;;;;;17.00;50.10;;;;;;6232984;22;20002;-54
2021/01/08 02:16:37;;;;;;;;;;;17.00;50.10;;;;;;6264906;22;19998;-55
2021/01/08 02:19:10;;;;;;;;;;;17.00;50.20;;;;;;6259749;22;19923;-54
2021/01/08 02:21:38;;;;;;;;;;;17.00;50.20;;;;;;6265453;22;20017;-54
2021/01/08 02:24:07;;;;;;;;;;;17.00;50.20;;;;;;6261096;22;19915;-54
2021/01/08 02:26:33;;;;;;;;;;;17.00;50.20;;;;;;6265622;22;20371;-54
2021/01/08 02:29:00;;;;;;;;;;;17.00;50.20;;;;;;6262278;22;19986;-54
2021/01/08 02:31:26;;;;;;;;;;;17.00;50.30;;;;;;6267230;22;20391;-54
2021/01/08 02:33:53;;;;;;;;;;;17.00;50.30;;;;;;6266586;22;20293;-54
2021/01/08 02:36:19;;;;;;;;;;;17.00;50.30;;;;;;6236266;22;19998;-54
2021/01/08 02:38:49;;;;;;;;;;;17.00;50.30;;;;;;6266859;22;19994;-54
2021/01/08 02:41:15;;;;;;;;;;;17.00;50.30;;;;;;6263555;22;20017;-54
2021/01/08 02:43:44;;;;;;;;;;;17.00;50.30;;;;;;6266574;22;19994;-54
2021/01/08 02:46:10;;;;;;;;;;;16.90;50.30;;;;;;6262845;22;19919;-54
2021/01/08 02:48:36;;;;;;;;;;;17.00;50.30;;;;;;6266264;22;19919;-54
2021/01/08 02:51:03;;;;;;;;;;;17.00;50.40;;;;;;6263034;22;19922;-54
2021/01/08 02:53:31;;;;;;;;;;;16.90;50.40;;;;;;6266095;22;20419;-54
2021/01/08 02:56:00;;;;;;;;;;;16.90;50.40;;;;;;6263559;22;20297;-54
2021/01/08 02:58:27;;;;;;;;;;;16.90;50.40;;;;;;6265890;22;20360;-54
2021/01/08 03:00:54;;;;;;;;;;;16.90;50.40;;;;;;6263269;22;19915;-54
2021/01/08 03:03:22;;;;;;;;;;;16.90;50.40;;;;;;6265945;22;20377;-54
2021/01/08 03:05:48;;;;;;;;;;;16.90;50.50;;;;;;6262635;22;19915;-54
2021/01/08 03:08:14;;;;;;;;;;;16.90;50.50;;;;;;6266435;22;19922;-54
2021/01/08 03:10:41;;;;;;;;;;;16.90;50.50;;;;;;6264550;22;20326;-54
2021/01/08 03:13:07;;;;;;;;;;;16.90;51.20;;;;;;6265843;22;19956;-55
2021/01/08 03:15:34;;;;;;;;;;;16.90;50.50;;;;;;6266330;22;20371;-54
2021/01/08 03:18:00;;;;;;;;;;;16.90;50.50;;;;;;6262477;22;19923;-54
2021/01/08 03:20:27;;;;;;;;;;;16.90;50.50;;;;;;6267126;22;19998;-54
2021/01/08 03:22:53;;;;;;;;;;;16.90;50.60;;;;;;6262395;22;19969;-54
2021/01/08 03:25:19;;;;;;;;;;;16.80;50.60;;;;;;6267061;22;20013;-54
2021/01/08 03:27:45;;;;;;;;;;;16.80;50.60;;;;;;6261346;22;19919;-54
2021/01/08 03:30:12;;;;;;;;;;;16.80;50.60;;;;;;6268055;22;19998;-54
2021/01/08 03:32:38;;;;;;;;;;;16.80;50.60;;;;;;6262124;22;19998;-54
2021/01/08 03:35:05;;;;;;;;;;;16.80;50.60;;;;;;6266539;22;19915;-54
2021/01/08 03:37:31;;;;;;;;;;;16.80;50.60;;;;;;6261665;22;19922;-54
2021/01/08 03:39:57;;;;;;;;;;;16.80;50.60;;;;;;6266391;22;19998;-54
2021/01/08 03:42:24;;;;;;;;;;;16.80;50.70;;;;;;6262193;22;19925;-54
2021/01/08 03:44:50;;;;;;;;;;;16.80;50.70;;;;;;6265990;22;20001;-54
2021/01/08 03:47:16;;;;;;;;;;;16.80;50.70;;;;;;6262918;22;19925;-54
2021/01/08 03:49:42;;;;;;;;;;;16.80;50.70;;;;;;6266852;22;19919;-54
2021/01/08 03:52:09;;;;;;;;;;;16.80;50.70;;;;;;6266272;22;19915;-54
2021/01/08 03:54:35;;;;;;;;;;;16.70;50.70;;;;;;6261869;22;19926;-54
2021/01/08 03:57:02;;;;;;;;;;;16.70;50.70;;;;;;6266602;22;20009;-54
2021/01/08 03:59:28;;;;;;;;;;;16.70;50.70;;;;;;6261413;22;20041;-54
2021/01/08 04:01:55;;;;;;;;;;;16.70;50.70;;;;;;6266622;22;19915;-54
2021/01/08 04:04:26;;;;;;;;;;;16.70;50.80;;;;;;6261938;22;19916;-54
2021/01/08 04:06:52;;;;;;;;;;;16.70;50.70;;;;;;6265773;22;20516;-54
2021/01/08 04:09:19;;;;;;;;;;;16.70;50.80;;;;;;6261622;22;19998;-54
2021/01/08 04:11:45;;;;;;;;;;;16.70;50.80;;;;;;6239341;22;20391;-54
2021/01/08 04:14:12;;;;;;;;;;;16.80;50.90;;;;;;6261517;22;20222;-55
2021/01/08 04:16:39;;;;;;;;;;;16.70;50.90;;;;;;6266242;22;19990;-54
2021/01/08 04:19:07;;;;;;;;;;;16.70;50.90;;;;;;6261295;22;19926;-54
2021/01/08 04:21:33;;;;;;;;;;;16.70;50.80;;;;;;6266655;22;19915;-54
2021/01/08 04:23:59;;;;;;;;;;;16.70;50.90;;;;;;6261153;22;20320;-54
2021/01/08 04:26:26;;;;;;;;;;;16.70;50.90;;;;;;6266996;22;20014;-54
2021/01/08 04:28:52;;;;;;;;;;;16.70;50.90;;;;;;6265654;22;19915;-54
2021/01/08 04:31:18;;;;;;;;;;;16.70;51.00;;;;;;6262742;22;19982;-54
2021/01/08 04:33:45;;;;;;;;;;;16.70;51.10;;;;;;6266838;22;20002;-54
2021/01/08 04:36:11;;;;;;;;;;;16.70;51.10;;;;;;6261609;22;20414;-54
2021/01/08 04:38:37;;;;;;;;;;;16.70;51.10;;;;;;6266095;22;20017;-54
2021/01/08 04:41:07;;;;;;;;;;;16.70;51.10;;;;;;6261634;22;19915;-54
2021/01/08 04:43:34;;;;;;;;;;;16.70;51.20;;;;;;6265699;22;20007;-54
2021/01/08 04:46:09;;;;;;;;;;;16.70;51.20;;;;;;6262051;22;19923;-55
2021/01/08 04:48:35;;;;;;;;;;;16.70;51.20;;;;;;6265975;22;19926;-54
2021/01/08 04:51:03;;;;;;;;;;;16.70;51.30;;;;;;6261515;22;19919;-54
2021/01/08 04:53:30;;;;;;;;;;;16.70;51.30;;;;;;6266317;22;20274;-54
2021/01/08 04:55:59;;;;;;;;;;;16.70;51.20;;;;;;6261525;22;19921;-54
2021/01/08 04:58:27;;;;;;;;;;;16.70;51.20;;;;;;6266451;22;20256;-54
2021/01/08 05:00:54;;;;;;;;;;;16.70;51.20;;;;;;6261838;22;20002;-54
2021/01/08 05:03:20;;;;;;;;;;;16.70;51.20;;;;;;6266021;22;20388;-54
2021/01/08 05:05:46;;;;;;;;;;;16.60;51.20;;;;;;6262088;22;19915;-54
2021/01/08 05:08:12;;;;;;;;;;;16.70;51.20;;;;;;6276444;22;19986;-54
2021/01/08 05:10:39;;;;;;;;;;;16.70;51.30;;;;;;6263477;22;19915;-54
2021/01/08 05:13:05;;;;;;;;;;;16.60;51.20;;;;;;6266991;22;19919;-54
2021/01/08 05:15:31;;;;;;;;;;;16.60;51.20;;;;;;6268308;22;20400;-54
2021/01/08 05:17:58;;;;;;;;;;;16.60;51.20;;;;;;6264217;22;19915;-54
2021/01/08 05:20:24;;;;;;;;;;;16.70;51.30;;;;;;6268107;22;19922;-54
2021/01/08 05:22:51;;;;;;;;;;;16.60;51.30;;;;;;6266372;22;20005;-54
2021/01/08 05:25:42;;;;;;;;;;;16.60;51.30;;;;;;6268667;22;19922;-54
2021/01/08 05:28:09;;;;;;;;;;;16.60;51.30;;;;;;6266741;22;20009;-54
2021/01/08 05:30:35;;;;;;;;;;;16.60;51.30;;;;;;6268915;22;19915;-54
2021/01/08 05:33:05;;;;;;;;;;;16.60;51.30;;;;;;6266921;22;19915;-54
2021/01/08 05:35:32;;;;;;;;;;;16.60;51.30;;;;;;6268917;22;19922;-54
2021/01/08 05:38:05;;;;;;;;;;;16.60;51.30;;;;;;6266085;22;19998;-54
2021/01/08 05:40:33;;;;;;;;;;;16.60;51.30;;;;;;6268757;22;20013;-54
2021/01/08 05:43:00;;;;;;;;;;;16.60;51.30;;;;;;6266615;22;19993;-54
2021/01/08 05:48:52;;;;;;;;;;;16.60;51.30;;;;;;6266270;22;19915;-54
2021/01/08 05:51:20;;;;;;;;;;;16.60;51.30;;;;;;6268721;22;19963;-54
2021/01/08 05:53:48;;;;;;;;;;;16.60;51.30;;;;;;6265974;22;19931;-54
2021/01/08 05:56:23;;;;;;;;;;;16.60;51.30;;;;;;6268831;22;20010;-54
2021/01/08 05:58:49;;;;;;;;;;;16.60;51.30;;;;;;6266766;22;19998;-54
2021/01/08 06:01:16;;;;;;;;;;;16.60;51.30;;;;;;6269565;22;19915;-53
2021/01/08 06:03:44;;;;;;;;;;;16.60;51.40;;;;;;6265884;22;19915;-54
2021/01/08 06:06:11;;;;;;;;;;;16.60;51.30;;;;;;6267542;22;20255;-54
2021/01/08 06:08:43;;;;;;;;;;;16.60;51.30;;;;;;6264965;22;19922;-54
2021/01/08 06:11:20;;;;;;;;;;;16.60;51.40;;;;;;6268144;22;20359;-54
2021/01/08 06:16:50;;;;;;;;;;;16.60;51.40;;;;;;6268872;22;20010;-54
2021/01/08 06:19:17;;;;;;;;;;;16.60;51.40;;;;;;6261788;22;19919;-53
2021/01/08 06:21:44;;;;;;;;;;;16.60;51.60;;;;;;6266915;22;19966;-53
2021/01/08 06:24:16;;;;;;;;;;;16.60;52.50;;;;;;6263582;22;20289;-54
2021/01/08 06:26:42;;;;;;;;;;;16.60;52.10;;;;;;6268409;22;20001;-54
2021/01/08 06:29:16;;;;;;;;;;;16.70;52.20;;;;;;6264347;22;19915;-54
2021/01/08 06:31:45;;;;;;;;;;;16.70;52.00;;;;;;6266775;22;19915;-54
2021/01/08 06:34:41;;;;;;;;;;;16.80;52.10;;;;;;6261366;22;19915;-53
2021/01/08 06:37:09;;;;;;;;;;;16.90;51.90;;;;;;6271111;22;19998;-53
2021/01/08 06:39:40;;;;;;;;;;;16.90;51.90;;;;;;6263534;22;19960;-54
2021/01/08 06:42:07;;;;;;;;;;;17.00;51.90;;;;;;6264750;22;19922;-54
2021/01/08 06:44:34;;;;;;;;;;;17.10;52.50;;;;;;6265435;22;19989;-55
2021/01/08 06:47:01;;;;;;;;;;;17.10;52.80;;;;;;6265780;22;19979;-54
2021/01/08 06:49:32;;;;;;;;;;;17.20;52.70;;;;;;6265079;22;19927;-54
2021/01/08 06:51:59;;;;;;;;;;;17.20;52.30;;;;;;6263570;22;20002;-54
2021/01/08 06:54:32;;;;;;;;;;;17.20;52.30;;;;;;6266272;22;19923;-54
2021/01/08 06:57:00;;;;;;;;;;;17.20;52.40;;;;;;6263246;22;19986;-54
2021/01/08 06:59:29;;;;;;;;;;;17.30;52.10;;;;;;6268275;22;19987;-54
2021/01/08 07:02:14;;;;;;;;;;;17.40;51.90;;;;;;6265355;22;20006;-54
2021/01/08 07:04:41;;;;;;;;;;;17.40;51.70;;;;;;6266844;22;19919;-53
2021/01/08 07:07:27;;;;;;;;;;;17.40;51.60;;;;;;6263124;22;20001;-53
2021/01/08 07:09:56;;;;;;;;;;;17.50;51.60;;;;;;6264219;22;19919;-54
2021/01/08 07:12:23;;;;;;;;;;;17.50;51.50;;;;;;6261561;22;20415;-54
2021/01/08 07:15:20;;;;;;;;;;;17.50;51.30;;;;;;6264189;22;20375;-54
2021/01/08 07:17:55;;;;;;;;;;;17.50;51.20;;;;;;6263775;22;19915;-54
2021/01/08 07:20:22;;;;;;;;;;;17.50;51.30;;;;;;6266183;22;19919;-53
2021/01/08 07:22:53;;;;;;;;;;;17.60;51.10;;;;;;6263475;22;20058;-54
2021/01/08 07:25:21;;;;;;;;;;;17.60;51.00;;;;;;6264909;22;19926;-53
2021/01/08 07:27:48;;;;;;;;;;;17.60;51.00;;;;;;6257872;22;19926;-54
2021/01/08 07:30:15;;;;;;;;;;;17.70;51.00;;;;;;6265777;22;20076;-54
2021/01/08 07:32:52;;;;;;;;;;;17.70;51.10;;;;;;6272907;22;19915;-54
2021/01/08 07:35:34;;;;;;;;;;;17.70;51.10;;;;;;6272874;22;19919;-55
2021/01/08 07:38:07;;;;;;;;;;;17.80;50.90;;;;;;6268000;22;19919;-53
2021/01/08 07:41:02;;;;;;;;;;;17.80;50.70;;;;;;6272422;22;19980;-54
2021/01/08 07:43:32;;;;;;;;;;;18.00;50.70;;;;;;6264841;22;19919;-53
2021/01/08 07:46:04;;;;;;;;;;;18.50;49.60;;;;;;6274524;22;19998;-55
2021/01/08 07:48:35;;;;;;;;;;;18.90;48.40;;;;;;6266394;22;19919;-54
2021/01/08 07:51:03;;;;;;;;;;;19.30;47.70;;;;;;6277511;22;19899;-54
2021/01/08 07:53:44;;;;;;;;;;;19.40;47.20;;;;;;6263084;22;20085;-54
2021/01/08 07:56:11;;;;;;;;;;;19.60;46.80;;;;;;6275953;22;19927;-53
2021/01/08 07:58:37;;;;;;;;;;;19.70;46.80;;;;;;6266348;22;19949;-53
2021/01/08 08:01:04;;;;;;;;;;;19.80;48.00;;;;;;6277151;22;19915;-53
2021/01/08 08:03:31;;;;;;;;;;;19.80;48.80;;;;;;6268067;22;19997;-53
2021/01/08 08:05:59;;;;;;;;;;;19.90;49.00;;;;;;6269960;22;19990;-53
2021/01/08 08:08:25;;;;;;;;;;;20.00;48.90;;;;;;6265088;22;19998;-52
2021/01/08 08:10:51;;;;;;;;;;;20.10;49.10;;;;;;6268271;22;20014;-52
2021/01/08 08:13:29;;;;;;;;;;;20.10;49.40;;;;;;6266715;22;19993;-53
2021/01/08 08:15:55;;;;;;;;;;;20.20;49.40;;;;;;6268719;22;19919;-53
2021/01/08 08:18:22;;;;;;;;;;;20.30;49.10;;;;;;6268851;22;20438;-53
2021/01/08 08:20:48;;;;;;;;;;;20.40;49.10;;;;;;6267923;22;19994;-52
2021/01/08 08:23:15;;;;;;;;;;;20.40;49.50;;;;;;6268717;22;20005;-53
2021/01/08 08:25:42;;;;;;;;;;;20.40;49.40;;;;;;6264960;22;20256;-53
2021/01/08 08:28:08;;;;;;;;;;;20.70;49.40;;;;;;6268596;22;19916;-52
2021/01/08 08:30:34;;;;;;;;;;;20.60;49.20;;;;;;6266448;22;19994;-53
2021/01/08 08:33:03;;;;;;;;;;;20.80;49.20;;;;;;6269188;22;19983;-52
2021/01/08 08:35:43;;;;;;;;;;;20.80;49.00;;;;;;6268240;22;19919;-53
2021/01/08 08:38:09;;;;;;;;;;;20.90;48.90;;;;;;6274924;22;19915;-52
2021/01/08 08:40:35;;;;;;;;;;;21.00;48.90;;;;;;6267049;22;20281;-53
2021/01/08 08:43:02;;;;;;;;;;;21.00;49.00;;;;;;6268737;22;20320;-52
2021/01/08 08:45:43;;;;;;;;;;;21.00;48.90;;;;;;6268373;22;19919;-54
2021/01/08 08:48:09;;;;;;;;;;;21.10;48.90;;;;;;6278088;22;20300;-54
2021/01/08 08:50:41;;;;;;;;;;;21.20;48.80;;;;;;6267385;22;20514;-56
2021/01/08 08:53:11;;;;;;;;;;;21.20;49.10;;;;;;6265763;22;19959;-56
2021/01/08 08:55:49;;;;;;;;;;;21.20;49.30;;;;;;6263019;22;19927;-56
2021/01/08 08:58:16;;;;;;;;;;;21.30;49.20;;;;;;6271233;22;20471;-56
2021/01/08 09:00:43;;;;;;;;;;;21.90;47.10;;;;;;6269871;22;19915;-56
2021/01/08 09:03:22;;;;;;;;;;;22.40;45.70;;;;;;6270715;22;20294;-56
2021/01/08 09:05:50;;;;;;;;;;;22.70;44.80;;;;;;6265768;22;20379;-59
2021/01/08 09:08:16;;;;;;;;;;;22.90;44.40;;;;;;6264652;22;20016;-59
2021/01/08 09:10:49;;;;;;;;;;;23.10;44.10;;;;;;6263616;22;19919;-59
2021/01/08 09:13:17;;;;;;;;;;;23.20;43.90;;;;;;6264776;22;19983;-57
2021/01/08 09:15:50;;;;;;;;;;;23.40;43.40;;;;;;6265253;22;20001;-61
2021/01/08 09:18:37;;;;;;;;;;;23.40;44.40;;;;;;6274499;22;19925;-60
2021/01/08 09:21:21;;;;;;;;;;;23.60;44.40;;;;;;6268785;22;20380;-60
2021/01/08 09:23:49;;;;;;;;;;;23.80;44.50;;;;;;6264240;22;20002;-61
2021/01/08 09:26:18;;;;;;;;;;;23.90;44.00;;;;;;6272677;22;19915;-60
2021/01/08 09:28:46;;;;;;;;;;;23.90;44.20;;;;;;6263548;22;19965;-61
2021/01/08 09:31:13;;;;;;;;;;;24.00;44.00;;;;;;6258442;22;20051;-60
2021/01/08 09:33:40;;;;;;;;;;;24.10;43.90;;;;;;6257950;22;19919;-61
2021/01/08 09:36:07;;;;;;;;;;;24.20;43.60;;;;;;6272895;22;19915;-58
2021/01/08 09:38:33;;;;;;;;;;;24.40;43.10;;;;;;6266936;22;19982;-58
2021/01/08 09:41:00;;;;;;;;;;;24.60;42.70;;;;;;6270529;22;20002;-58
2021/01/08 09:43:26;;;;;;;;;;;24.40;42.90;;;;;;6272797;22;20395;-58
2021/01/08 09:46:06;;;;;;;;;;;24.50;43.00;;;;;;6271338;22;20289;-58
2021/01/08 09:48:34;;;;;;;;;;;24.60;43.00;;;;;;6269831;22;19915;-59
2021/01/08 09:51:04;;;;;;;;;;;24.50;43.10;;;;;;6270838;22;19923;-59
2021/01/08 09:56:37;;;;;;;;;;;24.60;42.90;;;;;;6267319;22;19955;-60
2021/01/08 09:59:14;;;;;;;;;;;24.80;42.80;;;;;;6262289;22;19994;-60
2021/01/08 10:01:52;;;;;;;;;;;24.80;42.70;;;;;;6265624;22;19994;-61
2021/01/08 10:04:31;;;;;;;;;;;25.00;42.50;;;;;;6261533;22;20343;-60
2021/01/08 10:07:02;;;;;;;;;;;24.90;42.80;;;;;;6265309;22;20083;-61
2021/01/08 10:09:51;;;;;;;;;;;24.20;44.10;;;;;;6261913;22;20010;-59
2021/01/08 10:12:24;;;;;;;;;;;23.80;45.60;;;;;;6265699;22;20320;-60
2021/01/08 10:14:58;;;;;;;;;;;23.50;45.80;;;;;;6261907;22;20002;-60
2021/01/08 10:17:24;;;;;;;;;;;23.30;46.10;;;;;;6265684;22;20015;-61
2021/01/08 10:19:51;;;;;;;;;;;23.10;46.80;;;;;;6262542;22;19926;-60
2021/01/08 10:22:21;;;;;;;;;;;23.00;46.80;;;;;;6269515;22;19915;-60
2021/01/08 10:24:47;;;;;;;;;;;22.90;46.80;;;;;;6269910;22;20005;-58
2021/01/08 10:27:13;;;;;;;;;;;22.90;46.70;;;;;;6279614;22;20348;-59
2021/01/08 10:29:40;;;;;;;;;;;22.80;47.10;;;;;;6268875;22;20017;-58
2021/01/08 10:32:07;;;;;;;;;;;22.70;47.30;;;;;;6269084;22;20001;-59
2021/01/08 10:34:47;;;;;;;;;;;22.70;47.50;;;;;;6267110;22;19919;-58
2021/01/08 10:37:18;;;;;;;;;;;22.60;47.90;;;;;;6266765;22;20260;-58
2021/01/08 10:39:44;;;;;;;;;;;22.50;47.80;;;;;;6248852;22;20284;-59
2021/01/08 10:42:11;;;;;;;;;;;22.50;47.70;;;;;;6269919;22;19994;-59
2021/01/08 10:44:51;;;;;;;;;;;22.50;48.10;;;;;;6268804;22;19926;-58
2021/01/08 10:47:18;;;;;;;;;;;22.50;47.90;;;;;;6269469;22;19915;-60
2021/01/08 10:50:00;;;;;;;;;;;22.40;47.90;;;;;;6269683;22;19998;-58
2021/01/08 10:52:27;;;;;;;;;;;22.40;47.90;;;;;;6271492;22;19959;-59
2021/01/08 10:54:53;;;;;;;;;;;22.30;47.80;;;;;;6271981;22;19998;-59
2021/01/08 10:57:20;;;;;;;;;;;22.30;47.80;;;;;;6262491;22;19915;-58
2021/01/08 10:59:46;;;;;;;;;;;22.30;48.10;;;;;;6264959;22;20496;-58
2021/01/08 11:02:13;;;;;;;;;;;22.20;48.20;;;;;;6261498;22;19919;-59
2021/01/08 11:04:40;;;;;;;;;;;22.20;48.00;;;;;;6265152;22;19922;-57
2021/01/08 11:07:06;;;;;;;;;;;22.20;48.00;;;;;;6263999;22;20002;-58
2021/01/08 11:09:33;;;;;;;;;;;22.20;47.90;;;;;;6266564;22;19922;-59
2021/01/08 11:11:59;;;;;;;;;;;22.10;47.90;;;;;;6264188;22;20388;-57
2021/01/08 11:14:26;;;;;;;;;;;22.10;47.80;;;;;;6266238;22;19919;-55
2021/01/08 11:16:52;;;;;;;;;;;21.70;46.20;;;;;;6260131;22;19919;-56
2021/01/08 11:19:18;;;;;;;;;;;21.30;47.50;;;;;;6265289;22;20006;-56
2021/01/08 11:21:46;;;;;;;;;;;21.00;48.40;;;;;;6262798;22;19990;-55
2021/01/08 11:24:13;;;;;;;;;;;20.90;49.00;;;;;;6266117;22;20399;-55
2021/01/08 11:26:39;;;;;;;;;;;20.80;49.40;;;;;;6262287;22;19922;-56
2021/01/08 11:29:05;;;;;;;;;;;20.70;49.80;;;;;;6264585;22;19915;-55
2021/01/08 11:31:33;;;;;;;;;;;20.60;50.10;;;;;;6263703;22;20012;-55
2021/01/08 11:33:59;;;;;;;;;;;20.50;50.50;;;;;;6267535;22;19915;-55
2021/01/08 11:36:25;;;;;;;;;;;20.40;50.50;;;;;;6266904;22;20005;-55
2021/01/08 11:38:52;;;;;;;;;;;20.40;50.80;;;;;;6264605;22;19927;-55
2021/01/08 11:41:18;;;;;;;;;;;20.30;51.00;;;;;;6267539;22;19964;-55
2021/01/08 11:43:45;;;;;;;;;;;20.30;51.00;;;;;;6264903;22;20321;-55
2021/01/08 11:46:16;;;;;;;;;;;20.20;51.30;;;;;;6266944;22;19915;-56
2021/01/08 11:48:43;;;;;;;;;;;20.20;51.50;;;;;;6260872;22;19921;-56
2021/01/08 11:51:13;;;;;;;;;;;20.10;51.60;;;;;;6266204;22;20391;-56
2021/01/08 11:53:42;;;;;;;;;;;20.00;51.50;;;;;;6263228;22;19994;-55
2021/01/08 11:56:09;;;;;;;;;;;20.10;51.70;;;;;;6263893;22;19919;-56
2021/01/08 11:58:36;;;;;;;;;;;20.90;50.00;;;;;;6260266;22;20001;-56
2021/01/08 12:01:02;;;;;;;;;;;21.50;48.50;;;;;;6266621;22;19915;-56
2021/01/08 12:03:29;;;;;;;;;;;22.00;47.10;;;;;;6263276;22;19915;-55
2021/01/08 12:05:55;;;;;;;;;;;22.30;46.50;;;;;;6266739;22;20006;-56
2021/01/08 12:08:21;;;;;;;;;;;22.40;46.20;;;;;;6262285;22;20656;-56
2021/01/08 12:10:47;;;;;;;;;;;22.60;45.80;;;;;;6266884;22;19994;-56
2021/01/08 12:13:14;;;;;;;;;;;22.80;45.60;;;;;;6263425;22;19915;-57
2021/01/08 12:15:41;;;;;;;;;;;22.90;45.50;;;;;;6265837;22;19998;-56
2021/01/08 12:18:07;;;;;;;;;;;23.00;45.10;;;;;;6266437;22;19926;-56
2021/01/08 12:20:38;;;;;;;;;;;23.20;44.80;;;;;;6262916;22;19915;-56
2021/01/08 12:23:04;;;;;;;;;;;23.30;44.40;;;;;;6266854;22;20275;-56
2021/01/08 12:25:34;;;;;;;;;;;23.40;44.20;;;;;;6262579;22;19919;-55
2021/01/08 12:28:01;;;;;;;;;;;23.30;44.00;;;;;;6266140;22;19919;-58
2021/01/08 12:30:43;;;;;;;;;;;23.10;44.80;;;;;;6263045;22;19982;-59
2021/01/08 12:33:09;;;;;;;;;;;23.80;43.80;;;;;;6266736;22;19915;-60
2021/01/08 12:35:36;;;;;;;;;;;24.10;43.50;;;;;;6262943;22;19915;-59
2021/01/08 12:38:02;;;;;;;;;;;24.40;42.80;;;;;;6266247;22;19942;-59
2021/01/08 12:40:28;;;;;;;;;;;24.50;42.60;;;;;;6271781;22;19967;-60
2021/01/08 12:42:54;;;;;;;;;;;24.60;42.70;;;;;;6265876;22;19994;-58
2021/01/08 12:45:21;;;;;;;;;;;24.80;42.40;;;;;;6261865;22;20108;-59
2021/01/08 12:47:49;;;;;;;;;;;24.80;42.50;;;;;;6265667;22;19915;-59
2021/01/08 12:50:18;;;;;;;;;;;24.80;42.60;;;;;;6261785;22;19916;-57
2021/01/08 12:52:44;;;;;;;;;;;24.80;42.70;;;;;;6262891;22;19919;-57
2021/01/08 12:55:11;;;;;;;;;;;25.00;42.50;;;;;;6263521;22;20371;-58
2021/01/08 12:57:38;;;;;;;;;;;24.90;42.80;;;;;;6265572;22;19952;-56
2021/01/08 13:00:05;;;;;;;;;;;25.00;42.70;;;;;;6267606;22;20329;-58
2021/01/08 13:02:31;;;;;;;;;;;25.10;42.60;;;;;;6263170;22;20006;-57
2021/01/08 13:05:03;;;;;;;;;;;25.20;42.50;;;;;;6268509;22;19920;-58
2021/01/08 13:07:29;;;;;;;;;;;25.30;42.30;;;;;;6265116;22;20001;-57
2021/01/08 13:09:56;;;;;;;;;;;25.20;42.50;;;;;;6268040;22;20006;-58
2021/01/08 13:12:22;;;;;;;;;;;25.30;42.30;;;;;;6263712;22;19939;-59
2021/01/08 13:14:48;;;;;;;;;;;25.50;41.90;;;;;;6268375;22;20483;-59
2021/01/08 13:17:14;;;;;;;;;;;25.60;41.80;;;;;;6262920;22;19986;-58
2021/01/08 13:19:41;;;;;;;;;;;25.70;41.90;;;;;;6268620;22;19915;-58
2021/01/08 13:22:07;;;;;;;;;;;25.70;41.70;;;;;;6262865;22;19922;-57
2021/01/08 13:24:36;;;;;;;;;;;25.70;41.70;;;;;;6269397;22;19916;-58
2021/01/08 13:27:02;;;;;;;;;;;25.90;41.60;;;;;;6267187;22;20007;-58
2021/01/08 13:29:29;;;;;;;;;;;26.10;41.30;;;;;;6270415;22;19999;-58
2021/01/08 13:31:55;;;;;;;;;;;26.20;41.10;;;;;;6266007;22;20013;-57
2021/01/08 13:34:26;;;;;;;;;;;26.20;41.10;;;;;;6268954;22;19998;-57
2021/01/08 13:36:52;;;;;;;;;;;26.10;41.30;;;;;;6262711;22;19971;-59
2021/01/08 13:39:21;;;;;;;;;;;26.10;41.40;;;;;;6266101;22;19925;-60
2021/01/08 13:42:17;;;;;;;;;;;26.10;41.50;;;;;;6263185;22;19922;-60
2021/01/08 13:44:43;;;;;;;;;;;26.00;41.30;;;;;;6272191;22;20048;-60
2021/01/08 13:47:09;;;;;;;;;;;26.10;41.40;;;;;;6262637;22;19943;-59
2021/01/08 13:49:36;;;;;;;;;;;26.10;41.40;;;;;;6263915;22;19919;-60
2021/01/08 13:52:03;;;;;;;;;;;26.20;41.30;;;;;;6265148;22;19923;-61
2021/01/08 13:54:30;;;;;;;;;;;26.30;41.20;;;;;;6260954;22;19919;-60
2021/01/08 13:56:58;;;;;;;;;;;26.30;41.40;;;;;;6265922;22;19919;-60
2021/01/08 13:59:24;;;;;;;;;;;26.40;41.00;;;;;;6261172;22;19994;-60
2021/01/08 14:01:51;;;;;;;;;;;26.70;40.50;;;;;;6265314;22;19915;-60
2021/01/08 14:04:17;;;;;;;;;;;26.70;40.60;;;;;;6260574;22;19946;-61
2021/01/08 14:06:44;;;;;;;;;;;26.90;40.40;;;;;;6265852;22;19959;-61
2021/01/08 14:09:11;;;;;;;;;;;26.70;40.60;;;;;;6259075;22;19919;-60
2021/01/08 14:11:38;;;;;;;;;;;26.80;40.50;;;;;;6265024;22;19968;-59
2021/01/08 14:14:05;;;;;;;;;;;26.80;40.50;;;;;;6261704;22;19961;-58
2021/01/08 14:16:32;;;;;;;;;;;26.70;40.70;;;;;;6263623;22;19930;-58
2021/01/08 14:18:59;;;;;;;;;;;26.80;40.70;;;;;;6260773;22;19919;-58
2021/01/08 14:21:28;;;;;;;;;;;26.90;40.40;;;;;;6264566;22;19987;-59
2021/01/08 14:23:56;;;;;;;;;;;27.00;40.20;;;;;;6261325;22;19919;-59
2021/01/08 14:26:23;;;;;;;;;;;27.10;40.20;;;;;;6265016;22;19919;-58
2021/01/08 14:28:50;;;;;;;;;;;27.30;40.00;;;;;;6264376;22;19916;-58
2021/01/08 14:31:25;;;;;;;;;;;27.20;39.90;;;;;;6263010;22;19918;-60
2021/01/08 14:33:51;;;;;;;;;;;27.30;39.90;;;;;;6265643;22;20263;-58